createdAt,value
2019-04-11T00:00:09.023Z,8.95
2019-04-11T00:02:37.263Z,6.85
2019-04-11T00:05:06.442Z,8.03
2019-04-11T00:07:34.674Z,9.35
2019-04-11T00:10:04.075Z,8.88
2019-04-11T00:12:32.679Z,7.62
2019-04-11T00:15:00.872Z,7.75
2019-04-11T00:17:30.028Z,8.33
2019-04-11T00:19:58.384Z,8.83
2019-04-11T00:22:27.778Z,7.03
2019-04-11T00:24:56.001Z,7.55
2019-04-11T00:27:24.638Z,6.85
2019-04-11T00:29:53.372Z,8.70
2019-04-11T00:32:21.776Z,6.97
2019-04-11T00:34:51.090Z,10.03
2019-04-11T00:37:19.477Z,8.20
2019-04-11T00:39:47.952Z,7.78
2019-04-11T00:42:16.608Z,8.00
2019-04-11T00:44:45.243Z,6.62
2019-04-11T00:47:13.764Z,7.28
2019-04-11T00:49:42.934Z,7.53
2019-04-11T00:52:12.100Z,6.97
2019-04-11T00:54:40.699Z,7.87
2019-04-11T00:57:09.055Z,8.20
2019-04-11T00:59:38.397Z,7.28
2019-04-11T01:02:07.542Z,9.95
2019-04-11T01:04:36.980Z,7.03
2019-04-11T01:07:05.273Z,6.33
2019-04-11T01:09:34.645Z,8.83
2019-04-11T01:12:02.978Z,7.22
2019-04-11T01:14:32.039Z,6.78
2019-04-11T01:17:01.102Z,6.08
2019-04-11T01:19:29.417Z,5.97
2019-04-11T01:21:59.201Z,5.87
2019-04-11T01:24:28.177Z,7.30
2019-04-11T01:26:57.379Z,6.67
2019-04-11T01:29:27.225Z,5.83
2019-04-11T01:31:58.090Z,6.50
2019-04-11T01:34:26.665Z,7.47
2019-04-11T01:36:55.487Z,5.72
2019-04-11T01:39:29.431Z,7.10
2019-04-11T01:41:58.723Z,7.30
2019-04-11T01:44:26.940Z,6.37
2019-04-11T01:46:56.260Z,5.45
2019-04-11T01:49:26.199Z,5.83
2019-04-11T01:51:55.989Z,5.28
2019-04-11T01:54:25.842Z,5.80
2019-04-11T01:56:54.183Z,6.05
2019-04-11T01:59:23.589Z,6.65
2019-04-11T02:02:03.423Z,5.50
2019-04-11T02:04:34.182Z,6.45
2019-04-11T02:07:02.597Z,5.78
2019-04-11T02:09:30.793Z,6.10
2019-04-11T02:11:59.291Z,6.25
2019-04-11T02:14:27.999Z,6.87
2019-04-11T02:16:57.077Z,7.25
2019-04-11T02:19:25.912Z,5.87
2019-04-11T02:21:55.862Z,7.35
2019-04-11T02:24:25.994Z,8.18
2019-04-11T02:27:02.942Z,5.28
2019-04-11T02:29:31.332Z,5.85
2019-04-11T02:32:03.418Z,6.30
2019-04-11T02:34:29.872Z,5.87
2019-04-11T02:36:59.810Z,8.03
2019-04-11T02:39:30.792Z,7.30
2019-04-11T02:41:59.136Z,6.45
2019-04-11T02:44:43.172Z,7.03
2019-04-11T02:47:07.477Z,5.58
2019-04-11T02:49:27.998Z,5.97
2019-04-11T02:51:56.288Z,6.35
2019-04-11T02:54:26.391Z,6.42
2019-04-11T02:56:55.027Z,7.10
2019-04-11T02:59:25.162Z,7.28
2019-04-11T03:01:53.223Z,7.85
2019-04-11T03:04:22.762Z,9.03
2019-04-11T03:06:52.003Z,6.47
2019-04-11T03:09:22.029Z,7.78
2019-04-11T03:11:51.567Z,6.40
2019-04-11T03:14:20.693Z,6.50
2019-04-11T03:16:57.334Z,6.83
2019-04-11T03:19:35.694Z,6.87
2019-04-11T03:21:49.985Z,9.78
2019-04-11T03:24:18.939Z,6.95
2019-04-11T03:26:47.154Z,11.38
2019-04-11T03:29:15.605Z,6.40
2019-04-11T03:32:34.163Z,5.97
2019-04-11T03:37:22.289Z,7.95
2019-04-11T03:39:32.720Z,7.85
2019-04-11T03:41:59.736Z,7.95
2019-04-11T03:44:23.531Z,8.07
2019-04-11T03:47:02.137Z,5.97
2019-04-11T03:49:28.252Z,8.98
2019-04-11T03:51:47.927Z,6.08
2019-04-11T03:54:17.793Z,5.97
2019-04-11T03:56:46.041Z,5.47
2019-04-11T03:59:16.619Z,6.67
2019-04-11T04:01:44.502Z,7.70
2019-04-11T04:04:15.491Z,7.65
2019-04-11T04:06:45.623Z,10.85
2019-04-11T04:09:16.336Z,7.97
2019-04-11T04:11:46.886Z,7.90
2019-04-11T04:14:24.182Z,6.97
2019-04-11T04:17:03.667Z,6.35
2019-04-11T04:19:47.729Z,7.25
2019-04-11T04:22:35.744Z,6.90
2019-04-11T04:25:06.337Z,8.05
2019-04-11T04:27:35.220Z,6.42
2019-04-11T04:30:05.925Z,5.95
2019-04-11T04:32:34.393Z,6.83
2019-04-11T04:35:03.092Z,8.83
2019-04-11T04:37:34.697Z,8.38
2019-04-11T04:40:24.068Z,7.30
2019-04-11T04:42:40.367Z,7.22
2019-04-11T04:45:05.653Z,6.50
2019-04-11T04:47:42.387Z,8.93
2019-04-11T04:50:06.562Z,8.18
2019-04-11T04:52:36.587Z,8.28
2019-04-11T04:55:06.113Z,7.65
2019-04-11T04:57:35.836Z,8.63
2019-04-11T05:00:07.193Z,9.25
2019-04-11T05:02:37.376Z,7.33
2019-04-11T05:05:06.831Z,9.18
2019-04-11T05:07:40.194Z,9.28
2019-04-11T05:10:07.310Z,9.30
2019-04-11T05:12:36.579Z,8.38
2019-04-11T05:15:07.909Z,8.85
2019-04-11T05:17:36.517Z,7.17
2019-04-11T05:20:07.496Z,7.35
2019-04-11T05:22:35.707Z,7.72
2019-04-11T05:25:05.430Z,6.85
2019-04-11T05:27:33.929Z,7.03
2019-04-11T05:30:02.953Z,9.50
2019-04-11T05:32:31.376Z,7.75
2019-04-11T05:35:00.567Z,7.37
2019-04-11T05:37:29.244Z,7.17
2019-04-11T05:39:57.451Z,6.90
2019-04-11T05:42:27.128Z,8.20
2019-04-11T05:44:56.865Z,8.95
2019-04-11T05:47:25.635Z,8.50
2019-04-11T05:50:13.793Z,7.35
2019-04-11T05:52:42.125Z,9.78
2019-04-11T05:55:13.589Z,7.10
2019-04-11T05:57:43.158Z,9.18
2019-04-11T06:00:13.833Z,10.23
2019-04-11T06:02:43.845Z,9.45
2019-04-11T06:05:24.494Z,11.43
2019-04-11T06:08:00.406Z,10.55
2019-04-11T06:10:44.748Z,9.35
2019-04-11T06:13:17.073Z,9.10
2019-04-11T06:15:47.335Z,8.95
2019-04-11T06:18:37.403Z,8.03
2019-04-11T06:21:21.830Z,9.48
2019-04-11T06:23:57.735Z,7.80
2019-04-11T06:26:44.991Z,11.80
2019-04-11T06:29:21.267Z,7.60
2019-04-11T06:31:55.455Z,7.50
2019-04-11T06:34:26.937Z,7.17
2019-04-11T06:37:01.312Z,8.73
2019-04-11T06:39:37.810Z,9.80
2019-04-11T06:42:19.825Z,7.72
2019-04-11T06:44:56.434Z,8.43
2019-04-11T06:47:45.104Z,6.43
2019-04-11T06:50:21.126Z,7.78
2019-04-11T06:52:50.920Z,8.08
2019-04-11T06:55:35.602Z,9.28
2019-04-11T06:58:06.687Z,7.90
2019-04-11T07:00:36.751Z,8.48
2019-04-11T07:03:17.932Z,6.70
2019-04-11T07:05:38.686Z,7.42
2019-04-11T07:08:07.738Z,8.75
2019-04-11T07:10:38.228Z,8.05
2019-04-11T07:13:14.286Z,8.18
2019-04-11T07:15:44.573Z,7.42
2019-04-11T07:18:31.235Z,9.00
2019-04-11T07:21:01.199Z,8.05
2019-04-11T07:23:47.534Z,8.40
2019-04-11T07:26:17.380Z,7.93
2019-04-11T07:28:47.955Z,8.43
2019-04-11T07:31:21.645Z,8.58
2019-04-11T07:33:56.084Z,7.20
2019-04-11T07:36:43.918Z,7.10
2019-04-11T07:39:14.625Z,10.05
2019-04-11T07:41:45.588Z,8.00
2019-04-11T07:44:19.625Z,8.85
2019-04-11T07:46:55.938Z,9.13
2019-04-11T07:49:35.095Z,11.20
2019-04-11T07:52:13.513Z,12.35
2019-04-11T07:54:43.230Z,11.57
2019-04-11T07:57:22.612Z,9.38
2019-04-11T07:59:55.798Z,9.43
2019-04-11T08:02:41.638Z,10.90
2019-04-11T08:05:28.224Z,12.75
2019-04-11T08:08:01.117Z,11.20
2019-04-11T08:10:30.979Z,9.63
2019-04-11T08:13:01.668Z,9.65
2019-04-11T08:15:34.469Z,7.75
2019-04-11T08:18:04.378Z,8.03
2019-04-11T08:20:50.467Z,10.50
2019-04-11T08:23:21.326Z,8.50
2019-04-11T08:26:00.230Z,9.38
2019-04-11T08:28:28.968Z,9.58
2019-04-11T08:31:01.643Z,9.03
2019-04-11T08:33:31.115Z,8.97
2019-04-11T08:36:03.653Z,8.85
2019-04-11T08:38:34.267Z,13.07
2019-04-11T08:41:19.803Z,11.33
2019-04-11T08:43:48.364Z,10.58
2019-04-11T08:46:26.981Z,11.12
2019-04-11T08:48:59.512Z,11.53
2019-04-11T08:51:29.476Z,9.83
2019-04-11T08:54:15.432Z,8.20
2019-04-11T08:56:45.146Z,8.25
2019-04-11T08:59:33.578Z,7.60
2019-04-11T09:02:02.675Z,6.47
2019-04-11T09:04:50.309Z,7.92
2019-04-11T09:07:23.268Z,5.67
2019-04-11T09:10:11.591Z,7.40
2019-04-11T09:12:42.626Z,7.62
2019-04-11T09:15:12.759Z,7.08
2019-04-11T09:17:55.118Z,7.83
2019-04-11T09:20:23.473Z,7.75
2019-04-11T09:22:53.834Z,6.70
2019-04-11T09:25:43.320Z,8.43
2019-04-11T09:28:16.107Z,6.97
2019-04-11T09:30:47.267Z,6.40
2019-04-11T09:33:24.670Z,8.85
2019-04-11T09:35:57.661Z,5.83
2019-04-11T09:38:28.534Z,7.47
2019-04-11T09:41:10.685Z,6.47
2019-04-11T09:43:40.307Z,7.53
2019-04-11T09:46:27.205Z,5.42
2019-04-11T09:48:58.049Z,8.05
2019-04-11T09:51:47.682Z,5.70
2019-04-11T09:54:37.214Z,5.40
2019-04-11T09:57:10.043Z,5.72
2019-04-11T09:59:56.063Z,5.85
2019-04-11T10:02:42.383Z,5.92
2019-04-11T10:05:13.693Z,6.45
2019-04-11T10:08:00.006Z,6.70
2019-04-11T10:10:33.110Z,5.28
2019-04-11T10:13:06.721Z,7.23
2019-04-11T10:15:45.280Z,6.00
2019-04-11T10:18:37.325Z,6.07
2019-04-11T10:21:01.324Z,5.55
2019-04-11T10:23:37.158Z,5.20
2019-04-11T10:26:05.718Z,6.97
2019-04-11T10:28:51.689Z,6.90
2019-04-11T10:31:20.384Z,5.50
2019-04-11T10:33:59.623Z,5.70
2019-04-11T10:36:29.678Z,4.55
2019-04-11T10:39:15.318Z,6.40
2019-04-11T10:41:49.094Z,4.50
2019-04-11T10:46:51.598Z,4.95
2019-04-11T10:49:28.415Z,6.40
2019-04-11T10:52:10.344Z,6.37
2019-04-11T10:54:40.812Z,6.65
2019-04-11T10:57:11.815Z,6.62
2019-04-11T10:59:42.930Z,7.37
2019-04-11T11:02:29.637Z,5.12
2019-04-11T11:04:59.024Z,4.67
2019-04-11T11:07:28.758Z,6.58
2019-04-11T11:09:58.800Z,6.55
2019-04-11T11:12:31.232Z,5.67
2019-04-11T11:15:09.961Z,4.40
2019-04-11T11:18:29.559Z,5.28
2019-04-11T11:20:38.496Z,6.23
2019-04-11T11:23:07.729Z,5.17
2019-04-11T11:25:53.120Z,4.30
2019-04-11T11:28:30.129Z,6.15
2019-04-11T11:31:05.361Z,5.60
2019-04-11T11:33:34.413Z,7.00
2019-04-11T11:36:17.317Z,6.37
2019-04-11T11:38:54.375Z,5.50
2019-04-11T11:41:40.667Z,5.95
2019-04-11T11:44:10.257Z,7.55
2019-04-11T11:46:59.871Z,4.45
2019-04-11T11:49:42.445Z,4.87
2019-04-11T11:52:00.435Z,8.90
2019-04-11T11:54:31.320Z,5.58
2019-04-11T11:57:00.217Z,5.92
2019-04-11T11:59:32.712Z,6.05
2019-04-11T12:02:02.544Z,5.28
2019-04-11T12:04:51.930Z,4.65
2019-04-11T12:07:22.998Z,5.40
2019-04-11T12:10:09.251Z,5.47
2019-04-11T12:12:42.185Z,4.75
2019-04-11T12:15:14.283Z,6.03
2019-04-11T12:17:59.602Z,5.08
2019-04-11T12:20:29.643Z,6.57
2019-04-11T12:22:59.461Z,3.90
2019-04-11T12:25:47.405Z,5.85
2019-04-11T12:28:37.223Z,4.95
2019-04-11T12:31:09.899Z,5.25
2019-04-11T12:33:39.839Z,5.07
2019-04-11T12:36:09.989Z,5.72
2019-04-11T12:38:43.291Z,4.92
2019-04-11T12:41:29.547Z,5.33
2019-04-11T12:44:05.531Z,4.28
2019-04-11T12:46:52.368Z,5.28
2019-04-11T12:49:28.234Z,4.53
2019-04-11T12:52:13.099Z,5.55
2019-04-11T12:54:46.891Z,3.00
2019-04-11T12:57:19.483Z,3.55
2019-04-11T12:59:49.343Z,4.50
2019-04-11T13:02:19.196Z,5.47
2019-04-11T13:04:47.401Z,3.92
2019-04-11T13:07:33.898Z,3.80
2019-04-11T13:10:03.790Z,4.00
2019-04-11T13:12:33.643Z,3.98
2019-04-11T13:15:21.248Z,4.22
2019-04-11T13:18:00.259Z,3.55
2019-04-11T13:20:48.233Z,3.92
2019-04-11T13:23:36.332Z,4.30
2019-04-11T13:26:17.526Z,3.83
2019-04-11T13:28:51.760Z,7.33
2019-04-11T13:31:24.749Z,4.85
2019-04-11T13:33:54.809Z,3.17
2019-04-11T13:36:27.352Z,3.77
2019-04-11T13:38:55.560Z,4.23
2019-04-11T13:41:41.645Z,5.53
2019-04-11T13:44:11.495Z,5.53
2019-04-11T13:46:53.493Z,3.85
2019-04-11T13:49:29.176Z,4.25
2019-04-11T13:52:05.340Z,3.40
2019-04-11T13:54:41.385Z,6.00
2019-04-11T13:57:26.331Z,4.42
2019-04-11T14:00:12.192Z,5.67
2019-04-11T14:02:54.337Z,9.13
2019-04-11T14:05:22.748Z,4.33
2019-04-11T14:07:55.530Z,5.65
2019-04-11T14:10:23.730Z,4.30
2019-04-11T14:12:53.886Z,4.55
2019-04-11T14:15:23.689Z,5.35
2019-04-11T14:18:11.688Z,7.60
2019-04-11T14:20:47.288Z,4.87
2019-04-11T14:23:26.162Z,4.40
2019-04-11T14:25:56.291Z,4.50
2019-04-11T14:28:41.690Z,5.40
2019-04-11T14:31:11.534Z,5.17
2019-04-11T14:33:57.912Z,4.30
2019-04-11T14:36:45.814Z,4.62
2019-04-11T14:39:18.626Z,5.15
2019-04-11T14:41:59.733Z,4.60
2019-04-11T14:44:29.069Z,5.22
2019-04-11T14:47:07.701Z,5.15
2019-04-11T14:49:36.258Z,4.83
2019-04-11T14:52:25.338Z,3.87
2019-04-11T14:54:53.675Z,4.85
2019-04-11T14:57:26.204Z,5.10
2019-04-11T15:00:08.345Z,5.55
2019-04-11T15:02:41.229Z,4.87
2019-04-11T15:05:13.608Z,5.65
2019-04-11T15:07:41.204Z,5.05
2019-04-11T15:10:26.109Z,6.67
2019-04-11T15:12:55.790Z,4.20
2019-04-11T15:15:25.634Z,3.60
2019-04-11T15:17:55.934Z,5.12
2019-04-11T15:20:26.720Z,7.80
2019-04-11T15:23:02.044Z,5.65
2019-04-11T15:25:48.334Z,5.92
2019-04-11T15:28:20.986Z,4.85
2019-04-11T15:30:50.827Z,6.20
2019-04-11T15:33:26.536Z,5.75
2019-04-11T15:35:58.127Z,5.20
2019-04-11T15:38:40.054Z,4.60
2019-04-11T15:41:09.908Z,6.75
2019-04-11T15:43:56.242Z,5.92
2019-04-11T15:46:26.221Z,5.50
2019-04-11T15:49:05.106Z,5.17
2019-04-11T15:51:40.829Z,7.50
2019-04-11T15:54:16.482Z,6.67
2019-04-11T15:57:01.474Z,4.78
2019-04-11T15:59:31.326Z,5.10
2019-04-11T16:02:17.373Z,6.17
2019-04-11T16:04:47.280Z,4.80
2019-04-11T16:07:23.111Z,5.53
2019-04-11T16:09:52.986Z,5.65
2019-04-11T16:12:25.352Z,5.97
2019-04-11T16:15:13.370Z,4.83
2019-04-11T16:17:46.176Z,7.30
2019-04-11T16:20:17.790Z,4.80
2019-04-11T16:22:49.133Z,4.78
2019-04-11T16:25:19.238Z,6.78
2019-04-11T16:28:01.008Z,8.83
2019-04-11T16:30:30.844Z,5.53
2019-04-11T16:33:06.361Z,7.53
2019-04-11T16:35:51.257Z,4.27
2019-04-11T16:38:29.691Z,5.27
2019-04-11T16:41:11.237Z,5.97
2019-04-11T16:43:41.407Z,4.87
2019-04-11T16:46:29.536Z,6.30
2019-04-11T16:48:58.225Z,5.92
2019-04-11T16:51:31.058Z,7.75
2019-04-11T16:53:56.442Z,7.00
2019-04-11T16:56:24.999Z,7.07
2019-04-11T16:58:53.481Z,5.97
2019-04-11T17:01:23.217Z,7.45
2019-04-11T17:03:54.851Z,6.03
2019-04-11T17:06:29.673Z,9.95
2019-04-11T17:09:11.728Z,5.95
2019-04-11T17:11:40.066Z,7.55
2019-04-11T17:14:08.280Z,6.65
2019-04-11T17:16:36.921Z,5.65
2019-04-11T17:19:06.082Z,5.92
2019-04-11T17:21:42.995Z,7.37
2019-04-11T17:24:04.729Z,8.73
2019-04-11T17:26:33.303Z,6.72
2019-04-11T17:29:01.791Z,6.28
2019-04-11T17:31:30.001Z,6.50
2019-04-11T17:34:01.487Z,6.37
2019-04-11T17:36:28.149Z,6.65
2019-04-11T17:38:56.357Z,5.20
2019-04-11T17:41:24.593Z,5.57
2019-04-11T17:43:52.795Z,5.90
2019-04-11T17:46:21.361Z,5.67
2019-04-11T17:48:50.547Z,8.05
2019-04-11T17:51:18.892Z,6.17
2019-04-11T17:53:47.403Z,5.35
2019-04-11T17:56:16.373Z,4.97
2019-04-11T17:58:44.572Z,4.37
2019-04-11T18:01:12.864Z,5.00
2019-04-11T18:03:42.051Z,5.35
2019-04-11T18:06:11.130Z,6.20
2019-04-11T18:08:39.332Z,6.40
2019-04-11T18:11:07.528Z,6.30
2019-04-11T18:13:35.748Z,6.55
2019-04-11T18:16:04.252Z,6.47
2019-04-11T18:18:34.857Z,7.87
2019-04-11T18:21:07.009Z,7.62
2019-04-11T18:23:32.703Z,7.35
2019-04-11T18:26:01.252Z,7.30
2019-04-11T18:28:29.440Z,6.55
2019-04-11T18:30:58.019Z,5.92
2019-04-11T18:33:26.220Z,7.58
2019-04-11T18:35:54.765Z,7.10
2019-04-11T18:38:22.979Z,9.80
2019-04-11T18:40:51.629Z,6.17
2019-04-11T18:43:19.838Z,7.20
2019-04-11T18:45:48.387Z,7.30
2019-04-11T18:48:16.689Z,7.22
2019-04-11T18:50:45.283Z,6.70
2019-04-11T18:53:13.725Z,7.05
2019-04-11T18:55:41.922Z,8.73
2019-04-11T18:58:10.479Z,7.53
2019-04-11T19:00:39.061Z,5.87
2019-04-11T19:03:07.993Z,6.97
2019-04-11T19:05:37.763Z,8.23
2019-04-11T19:08:05.982Z,7.87
2019-04-11T19:10:34.976Z,7.05
2019-04-11T19:13:03.342Z,6.15
2019-04-11T19:15:31.894Z,5.95
2019-04-11T19:18:06.346Z,6.47
2019-04-11T19:20:30.582Z,6.67
2019-04-11T19:22:59.193Z,8.03
2019-04-11T19:25:27.394Z,7.67
2019-04-11T19:27:57.330Z,6.70
2019-04-11T19:30:26.378Z,8.20
2019-04-11T19:32:55.613Z,7.75
2019-04-11T19:35:24.152Z,7.77
2019-04-11T19:37:52.373Z,7.10
2019-04-11T19:40:20.581Z,7.25
2019-04-11T19:42:49.736Z,7.60
2019-04-11T19:45:19.453Z,6.45
2019-04-11T19:47:51.853Z,6.67
2019-04-11T19:50:18.380Z,8.10
2019-04-11T19:52:46.899Z,7.08
2019-04-11T19:55:19.700Z,6.70
2019-04-11T19:57:48.353Z,7.37
2019-04-11T20:00:16.831Z,7.30
2019-04-11T20:02:46.679Z,6.83
2019-04-11T20:05:14.890Z,7.17
2019-04-11T20:07:43.419Z,7.40
2019-04-11T20:10:11.988Z,7.72
2019-04-11T20:12:40.191Z,10.53
2019-04-11T20:15:08.854Z,7.60
2019-04-11T20:17:44.234Z,7.55
2019-04-11T20:20:07.860Z,8.18
2019-04-11T20:22:39.273Z,8.15
2019-04-11T20:25:07.219Z,7.80
2019-04-11T20:27:35.443Z,7.22
2019-04-11T20:30:05.020Z,9.48
2019-04-11T20:32:33.785Z,9.50
2019-04-11T20:35:02.019Z,10.32
2019-04-11T20:37:39.237Z,8.65
2019-04-11T20:40:00.718Z,8.73
2019-04-11T20:42:28.970Z,8.63
2019-04-11T20:44:58.478Z,8.65
2019-04-11T20:47:29.543Z,8.93
2019-04-11T20:49:57.204Z,8.30
2019-04-11T20:52:25.449Z,9.23
2019-04-11T20:54:53.917Z,8.48
2019-04-11T20:57:25.991Z,8.65
2019-04-11T20:59:52.054Z,8.00
2019-04-11T21:02:20.629Z,7.67
2019-04-11T21:04:48.871Z,10.60
2019-04-11T21:07:17.395Z,8.73
2019-04-11T21:09:45.632Z,7.28
2019-04-11T21:12:14.794Z,8.78
2019-04-11T21:14:43.023Z,7.33
2019-04-11T21:17:11.617Z,6.90
2019-04-11T21:19:40.156Z,8.10
2019-04-11T21:22:08.449Z,7.90
2019-04-11T21:24:37.239Z,7.57
2019-04-11T21:27:06.310Z,8.25
2019-04-11T21:29:34.507Z,6.35
2019-04-11T21:32:02.748Z,8.30
2019-04-11T21:34:32.395Z,6.45
2019-04-11T21:37:02.567Z,7.65
2019-04-11T21:39:30.951Z,9.90
2019-04-11T21:41:59.244Z,8.13
2019-04-11T21:44:27.745Z,8.00
2019-04-11T21:46:55.937Z,7.25
2019-04-11T21:49:24.428Z,7.00
2019-04-11T21:51:52.952Z,7.05
2019-04-11T21:54:21.151Z,7.65
2019-04-11T21:56:50.396Z,7.45
2019-04-11T21:59:20.334Z,8.93
2019-04-11T22:01:48.946Z,7.67
2019-04-11T22:04:17.469Z,7.05
2019-04-11T22:06:45.710Z,7.53
2019-04-11T22:09:13.906Z,6.97
2019-04-11T22:11:42.134Z,7.85
2019-04-11T22:14:11.306Z,6.50
2019-04-11T22:16:44.127Z,7.20
2019-04-11T22:19:13.938Z,9.10
2019-04-11T22:21:40.245Z,7.80
2019-04-11T22:24:08.832Z,8.48
2019-04-11T22:26:37.029Z,8.50
2019-04-11T22:29:05.422Z,9.75
2019-04-11T22:31:33.627Z,7.62
2019-04-11T22:34:03.747Z,8.10
2019-04-11T22:36:31.952Z,7.95
2019-04-11T22:39:01.077Z,7.10
2019-04-11T22:41:30.113Z,8.18
2019-04-11T22:43:58.315Z,8.65
2019-04-11T22:46:26.582Z,9.93
2019-04-11T22:48:55.144Z,7.75
2019-04-11T22:51:23.420Z,8.65
2019-04-11T22:53:59.897Z,8.53
2019-04-11T22:56:21.555Z,7.60
2019-04-11T22:58:49.784Z,8.83
2019-04-11T23:01:18.013Z,8.35
2019-04-11T23:03:48.191Z,7.78
2019-04-11T23:06:17.188Z,9.73
2019-04-11T23:08:48.520Z,8.60
2019-04-11T23:11:15.966Z,9.53
2019-04-11T23:13:45.745Z,9.30
2019-04-11T23:16:14.408Z,9.40
2019-04-11T23:18:44.249Z,8.78
2019-04-11T23:21:14.325Z,7.67
2019-04-11T23:23:43.405Z,11.20
2019-04-11T23:26:12.371Z,7.03
2019-04-11T23:28:40.609Z,7.92
2019-04-11T23:31:08.815Z,9.38
2019-04-11T23:33:37.013Z,8.80
2019-04-11T23:36:05.235Z,8.83
2019-04-11T23:38:33.446Z,8.83
2019-04-11T23:41:01.654Z,9.13
2019-04-11T23:43:29.963Z,8.10
2019-04-11T23:45:59.822Z,9.68
2019-04-11T23:48:28.147Z,9.43
2019-04-11T23:50:56.353Z,9.53
2019-04-11T23:53:28.319Z,9.10
2019-04-11T23:55:59.867Z,10.80
2019-04-11T23:58:25.695Z,9.53
